createdAt,value
2023-05-25T00:01:02.516Z,98994.28
2023-05-25T00:03:31.462Z,98984.84
2023-05-25T00:06:01.321Z,98969.97
2023-05-25T00:08:29.090Z,98976.03
2023-05-25T00:10:55.783Z,98989.66
2023-05-25T00:13:22.370Z,98967.56
2023-05-25T00:15:49.036Z,98991.63
2023-05-25T00:18:15.627Z,98980.50
2023-05-25T00:20:44.578Z,98992.31
2023-05-25T00:23:11.236Z,98969.38
2023-05-25T00:25:37.949Z,98992.31
2023-05-25T00:28:04.810Z,98988.00
2023-05-25T00:30:31.714Z,98997.75
2023-05-25T00:33:01.253Z,99003.94
2023-05-25T00:35:28.019Z,98994.28
2023-05-25T00:37:54.781Z,99006.59
2023-05-25T00:40:24.379Z,98992.09
2023-05-25T00:42:52.558Z,98999.97
2023-05-25T00:45:19.165Z,99005.03
2023-05-25T00:47:46.712Z,99004.19
2023-05-25T00:50:15.350Z,99005.03
2023-05-25T00:52:42.284Z,98998.72
2023-05-25T00:55:12.023Z,98999.72
2023-05-25T00:57:41.502Z,98995.00
2023-05-25T01:00:11.400Z,99001.53
2023-05-25T01:02:40.952Z,98975.31
2023-05-25T01:05:10.705Z,99004.31
2023-05-25T01:07:39.166Z,99005.16
2023-05-25T01:10:06.955Z,99010.47
2023-05-25T01:12:44.385Z,98984.16
2023-05-25T01:15:11.920Z,98989.56
2023-05-25T01:17:38.752Z,98996.47
2023-05-25T01:20:11.813Z,98994.63
2023-05-25T01:22:45.266Z,98991.38
2023-05-25T01:25:47.473Z,98970.34
2023-05-25T01:28:25.391Z,99000.09
2023-05-25T01:30:53.386Z,99008.31
2023-05-25T01:33:21.540Z,99006.38
2023-05-25T01:35:48.868Z,99001.88
2023-05-25T01:38:16.025Z,99008.16
2023-05-25T01:40:42.624Z,98988.75
2023-05-25T01:43:09.174Z,99010.81
2023-05-25T01:45:36.345Z,99000.31
2023-05-25T01:48:12.956Z,99002.97
2023-05-25T01:50:51.033Z,99008.31
2023-05-25T01:53:25.844Z,99001.19
2023-05-25T01:56:00.895Z,99003.84
2023-05-25T01:58:34.904Z,99002.16
2023-05-25T02:01:02.358Z,99004.81
2023-05-25T02:03:28.981Z,98994.41
2023-05-25T02:05:57.877Z,99003.94
2023-05-25T02:08:24.891Z,99003.13
2023-05-25T02:10:51.639Z,98996.09
2023-05-25T02:13:18.222Z,99004.06
2023-05-25T02:15:45.131Z,98997.94
2023-05-25T02:18:13.670Z,98996.09
2023-05-25T02:20:40.378Z,98996.09
2023-05-25T02:23:07.163Z,98989.22
2023-05-25T02:25:34.050Z,98992.72
2023-05-25T02:28:00.954Z,98995.25
2023-05-25T02:30:27.851Z,98990.03
2023-05-25T02:32:57.050Z,98987.53
2023-05-25T02:37:37.347Z,98971.69
2023-05-25T02:40:05.730Z,98987.53
2023-05-25T02:42:32.495Z,98985.72
2023-05-25T02:44:59.267Z,98983.28
2023-05-25T02:47:26.212Z,98994.53
2023-05-25T02:49:53.044Z,98984.84
2023-05-25T02:52:19.729Z,98983.06
2023-05-25T02:54:46.633Z,98982.47
2023-05-25T02:57:19.594Z,98987.53
2023-05-25T02:59:46.984Z,98983.16
2023-05-25T03:02:13.553Z,98981.38
2023-05-25T03:04:41.857Z,98968.06
2023-05-25T03:07:08.885Z,98977.00
2023-05-25T03:09:35.703Z,98977.84
2023-05-25T03:12:03.915Z,98966.25
2023-05-25T03:14:30.724Z,98973.94
2023-05-25T03:19:26.351Z,98982.34
2023-05-25T03:21:53.016Z,98970.81
2023-05-25T03:24:19.707Z,98978.94
2023-05-25T03:26:46.485Z,98981.94
2023-05-25T03:29:15.443Z,98984.03
2023-05-25T03:31:42.167Z,98992.22
2023-05-25T03:34:09.339Z,98984.84
2023-05-25T03:36:38.965Z,98982.31
2023-05-25T03:39:07.108Z,99002.03
2023-05-25T03:41:33.890Z,99000.34
2023-05-25T03:44:00.608Z,99002.16
2023-05-25T03:46:27.518Z,98996.00
2023-05-25T03:48:57.017Z,99003.09
2023-05-25T03:51:23.919Z,98995.13
2023-05-25T03:53:50.641Z,99003.31
2023-05-25T03:56:17.335Z,99010.22
2023-05-25T03:58:44.231Z,99009.38
2023-05-25T04:01:13.572Z,98990.06
2023-05-25T04:03:40.567Z,99010.47
2023-05-25T04:06:07.355Z,99013.25
2023-05-25T04:08:34.086Z,99006.84
2023-05-25T04:11:01.186Z,99025.22
2023-05-25T04:13:28.261Z,99025.22
2023-05-25T04:15:55.835Z,99024.47
2023-05-25T04:18:26.452Z,99025.56
2023-05-25T04:20:55.418Z,99028.22
2023-05-25T04:23:22.461Z,99025.69
2023-05-25T04:25:51.457Z,99027.97
2023-05-25T04:28:18.609Z,99026.78
2023-05-25T04:33:23.617Z,98995.00
2023-05-25T04:36:00.995Z,99032.09
2023-05-25T04:38:30.734Z,99033.06
2023-05-25T04:41:05.889Z,99028.09
2023-05-25T04:43:35.465Z,99035.72
2023-05-25T04:46:02.461Z,99038.38
2023-05-25T04:48:32.604Z,99004.53
2023-05-25T04:51:03.092Z,99030.63
2023-05-25T04:53:32.274Z,99040.91
2023-05-25T04:55:59.038Z,99021.47
2023-05-25T04:58:26.096Z,99026.63
2023-05-25T05:00:52.933Z,99044.31
2023-05-25T05:03:19.729Z,99047.81
2023-05-25T05:05:47.245Z,99046.13
2023-05-25T05:08:24.316Z,99050.47
2023-05-25T05:10:51.233Z,99044.53
2023-05-25T05:13:17.929Z,99052.63
2023-05-25T05:15:44.850Z,99066.53
2023-05-25T05:18:12.936Z,99068.22
2023-05-25T05:20:41.318Z,99061.09
2023-05-25T05:23:08.105Z,99071.13
2023-05-25T05:25:38.157Z,99071.03
2023-05-25T05:28:05.066Z,99074.50
2023-05-25T05:30:37.474Z,99075.38
2023-05-25T05:33:04.476Z,99084.31
2023-05-25T05:35:36.781Z,99059.16
2023-05-25T05:38:11.389Z,99090.47
2023-05-25T05:40:38.139Z,99066.75
2023-05-25T05:43:04.782Z,99087.06
2023-05-25T05:45:31.574Z,99089.84
2023-05-25T05:48:01.125Z,99079.94
2023-05-25T05:50:29.559Z,99098.06
2023-05-25T05:52:56.266Z,99084.88
2023-05-25T05:55:22.922Z,99066.63
2023-05-25T05:57:52.076Z,99084.53
2023-05-25T06:00:19.555Z,99084.88
2023-05-25T06:02:46.858Z,99083.56
2023-05-25T06:05:19.624Z,99103.00
2023-05-25T06:07:46.773Z,99089.22
2023-05-25T06:10:13.815Z,99089.34
2023-05-25T06:12:40.779Z,99100.59
2023-05-25T06:15:09.892Z,99113.75
2023-05-25T06:17:38.135Z,99108.44
2023-05-25T06:20:06.566Z,99120.91
2023-05-25T06:22:33.502Z,99118.25
2023-05-25T06:25:01.659Z,99119.91
2023-05-25T06:27:28.591Z,99096.44
2023-05-25T06:29:55.471Z,99098.75
2023-05-25T06:32:23.083Z,99126.78
2023-05-25T06:34:49.864Z,99119.81
2023-05-25T06:37:17.150Z,99124.13
2023-05-25T06:39:44.004Z,99111.84
2023-05-25T06:42:14.527Z,99107.81
2023-05-25T06:44:51.139Z,99121.59
2023-05-25T06:47:17.820Z,99121.59
2023-05-25T06:49:44.460Z,99129.56
2023-05-25T06:52:11.201Z,99102.63
2023-05-25T06:57:02.519Z,99140.34
2023-05-25T06:59:29.247Z,99133.44
2023-05-25T07:01:56.457Z,99124.97
2023-05-25T07:04:23.520Z,99131.00
2023-05-25T07:06:50.060Z,99141.28
2023-05-25T07:09:17.309Z,99131.63
2023-05-25T07:11:43.876Z,99130.78
2023-05-25T07:14:10.686Z,99128.34
2023-05-25T07:16:37.331Z,99124.84
2023-05-25T07:19:04.151Z,99135.25
2023-05-25T07:21:33.948Z,99108.91
2023-05-25T07:24:01.587Z,99145.03
2023-05-25T07:26:28.340Z,99077.78
2023-05-25T07:28:54.977Z,99138.63
2023-05-25T07:31:22.539Z,99147.47
2023-05-25T07:33:49.708Z,99143.00
2023-05-25T07:36:17.480Z,99151.78
2023-05-25T07:38:44.236Z,99141.03
2023-05-25T07:41:13.422Z,99155.31
2023-05-25T07:43:40.516Z,99150.97
2023-05-25T07:46:07.154Z,99157.13
2023-05-25T07:48:34.074Z,99148.31
2023-05-25T07:51:00.790Z,99149.13
2023-05-25T07:53:27.455Z,99155.31
2023-05-25T07:55:54.292Z,99146.00
2023-05-25T07:58:21.395Z,99152.66
2023-05-25T08:00:49.718Z,99151.69
2023-05-25T08:03:16.628Z,99126.06
2023-05-25T08:05:46.992Z,99151.69
2023-05-25T08:08:14.302Z,99157.03
2023-05-25T08:10:41.233Z,99150.13
2023-05-25T08:13:07.972Z,99153.38
2023-05-25T08:15:34.509Z,99137.91
2023-05-25T08:18:01.394Z,99147.22
2023-05-25T08:20:28.085Z,99154.25
2023-05-25T08:22:54.867Z,99157.72
2023-05-25T08:25:22.362Z,99150.34
2023-05-25T08:27:49.368Z,99137.81
2023-05-25T08:30:16.062Z,99137.81
2023-05-25T08:32:42.858Z,99144.44
2023-05-25T08:35:10.056Z,99146.13
2023-05-25T08:37:36.696Z,99152.31
2023-05-25T08:40:03.516Z,99155.94
2023-05-25T08:42:30.224Z,99137.69
2023-05-25T08:44:57.256Z,99137.34
2023-05-25T08:47:24.919Z,99124.00
2023-05-25T08:49:54.030Z,99113.00
2023-05-25T08:52:28.817Z,99137.22
2023-05-25T08:55:00.819Z,99143.34
2023-05-25T08:57:34.525Z,99146.88
2023-05-25T09:00:10.341Z,99144.09
2023-05-25T09:02:44.416Z,99148.56
2023-05-25T09:05:13.304Z,99146.75
2023-05-25T09:07:42.169Z,99146.75
2023-05-25T09:10:09.766Z,99137.81
2023-05-25T09:12:36.638Z,99146.00
2023-05-25T09:15:03.725Z,99156.31
2023-05-25T09:17:30.874Z,99148.19
2023-05-25T09:19:59.278Z,99157.88
2023-05-25T09:22:26.103Z,99147.72
2023-05-25T09:24:54.082Z,99153.41
2023-05-25T09:27:23.184Z,99157.66
2023-05-25T09:29:51.016Z,99156.69
2023-05-25T09:32:19.119Z,99169.00
2023-05-25T09:34:47.390Z,99169.00
2023-05-25T09:37:16.439Z,99151.84
2023-05-25T09:39:47.874Z,99148.56
2023-05-25T09:42:14.714Z,99164.53
2023-05-25T09:44:43.120Z,99171.66
2023-05-25T09:47:09.976Z,99171.56
2023-05-25T09:49:37.033Z,99169.88
2023-05-25T09:52:04.990Z,99158.47
2023-05-25T09:54:34.182Z,99166.09
2023-05-25T09:57:03.910Z,99173.25
2023-05-25T09:59:33.506Z,99168.78
2023-05-25T10:02:00.905Z,99177.59
2023-05-25T10:04:27.602Z,99164.06
2023-05-25T10:06:56.842Z,99157.53
2023-05-25T10:09:26.047Z,99168.78
2023-05-25T10:11:54.852Z,99154.13
2023-05-25T10:14:28.689Z,99171.31
2023-05-25T10:16:59.264Z,99155.34
2023-05-25T10:19:34.494Z,99153.56
2023-05-25T10:22:11.437Z,99154.41
2023-05-25T10:24:52.891Z,99156.22
2023-05-25T10:27:28.379Z,99161.41
2023-05-25T10:29:59.874Z,99154.53
2023-05-25T10:32:28.246Z,99165.78
2023-05-25T10:34:56.929Z,99141.84
2023-05-25T10:37:27.564Z,99164.81
2023-05-25T10:39:57.334Z,99160.31
2023-05-25T10:42:24.119Z,99162.97
2023-05-25T10:44:51.014Z,99136.59
2023-05-25T10:47:18.315Z,99131.06
2023-05-25T10:49:56.377Z,99151.38
2023-05-25T10:52:28.152Z,99148.72
2023-05-25T10:55:04.226Z,99134.34
2023-05-25T10:57:31.028Z,99151.25
2023-05-25T11:00:08.817Z,99150.44
2023-05-25T11:02:55.946Z,99147.78
2023-05-25T11:05:34.436Z,99149.56
2023-05-25T11:08:04.385Z,99132.38
2023-05-25T11:10:49.985Z,99146.91
2023-05-25T11:13:31.866Z,99145.13
2023-05-25T11:16:20.490Z,99145.94
2023-05-25T11:18:59.962Z,99141.84
2023-05-25T11:21:27.168Z,99148.72
2023-05-25T11:23:56.930Z,99151.25
2023-05-25T11:26:26.555Z,99150.44
2023-05-25T11:28:54.823Z,99147.78
2023-05-25T11:31:41.218Z,99146.78
2023-05-25T11:34:14.844Z,99146.78
2023-05-25T11:36:42.200Z,99138.81
2023-05-25T11:39:17.215Z,99125.03
2023-05-25T11:41:52.197Z,99120.09
2023-05-25T11:44:29.514Z,99113.06
2023-05-25T11:46:57.597Z,99140.75
2023-05-25T11:49:25.805Z,99122.75
2023-05-25T11:51:59.483Z,99149.34
2023-05-25T11:54:27.971Z,99144.88
2023-05-25T11:56:58.961Z,99146.69
2023-05-25T11:59:29.737Z,99145.94
2023-05-25T12:02:04.681Z,99146.69
2023-05-25T12:04:33.491Z,99142.22
2023-05-25T12:07:04.738Z,99133.47
2023-05-25T12:09:32.273Z,99127.16
2023-05-25T12:11:59.775Z,99133.28
2023-05-25T12:14:26.789Z,99133.28
2023-05-25T12:16:53.879Z,99129.81
2023-05-25T12:21:41.631Z,99131.59
2023-05-25T12:24:09.928Z,99123.31
2023-05-25T12:26:47.770Z,99142.22
2023-05-25T12:29:14.525Z,99136.03
2023-05-25T12:31:41.751Z,99130.72
2023-05-25T12:34:15.113Z,99142.22
2023-05-25T12:36:54.316Z,99142.31
2023-05-25T12:39:31.214Z,99145.13
2023-05-25T12:42:00.057Z,99146.78
2023-05-25T12:44:32.661Z,99127.31
2023-05-25T12:51:48.679Z,99130.94
2023-05-25T12:54:15.433Z,99135.31
2023-05-25T12:56:57.558Z,99124.66
2023-05-25T12:59:24.128Z,99122.00
2023-05-25T13:01:50.824Z,99123.72
2023-05-25T13:04:17.690Z,99122.75
2023-05-25T13:06:44.261Z,99114.78
2023-05-25T13:09:10.959Z,99107.38
2023-05-25T13:11:37.603Z,99113.84
2023-05-25T13:14:04.705Z,99070.03
2023-05-25T13:16:34.379Z,99111.19
2023-05-25T13:19:02.256Z,99117.34
2023-05-25T13:21:28.834Z,99104.13
2023-05-25T13:23:55.552Z,99105.22
2023-05-25T13:28:53.280Z,99110.31
2023-05-25T13:31:20.064Z,99097.25
2023-05-25T13:33:46.907Z,99101.56
2023-05-25T13:36:14.635Z,99087.94
2023-05-25T13:38:41.233Z,99104.13
2023-05-25T13:41:07.955Z,99100.63
2023-05-25T13:43:34.726Z,99097.03
2023-05-25T13:46:01.579Z,99097.88
2023-05-25T13:48:29.823Z,99086.72
2023-05-25T13:50:56.582Z,99098.81
2023-05-25T13:53:23.647Z,99088.19
2023-05-25T13:55:50.340Z,99085.75
2023-05-25T13:58:17.084Z,99087.31
2023-05-25T14:00:44.146Z,99082.97
2023-05-25T14:03:10.977Z,99087.31
2023-05-25T14:05:38.061Z,99096.25
2023-05-25T14:10:29.200Z,99095.44
2023-05-25T14:12:56.058Z,99094.59
2023-05-25T14:15:22.961Z,99085.63
2023-05-25T14:17:49.618Z,99069.19
2023-05-25T14:20:21.139Z,99091.06
2023-05-25T14:22:47.898Z,99094.69
2023-05-25T14:25:14.488Z,99075.94
2023-05-25T14:27:41.138Z,99095.44
2023-05-25T14:30:08.318Z,99085.28
2023-05-25T14:32:35.124Z,99093.72
2023-05-25T14:35:01.825Z,99092.03
2023-05-25T14:37:28.487Z,99079.72
2023-05-25T14:39:55.056Z,99079.59
2023-05-25T14:42:21.863Z,99090.22
2023-05-25T14:44:48.419Z,99059.53
2023-05-25T14:47:15.400Z,99071.25
2023-05-25T14:49:42.077Z,99019.53
2023-05-25T14:52:08.829Z,99083.09
2023-05-25T14:54:36.073Z,99069.44
2023-05-25T14:57:03.023Z,99081.41
2023-05-25T14:59:29.632Z,99075.25
2023-05-25T15:01:56.458Z,99072.81
2023-05-25T15:04:23.172Z,99074.28
2023-05-25T15:06:49.890Z,99075.25
2023-05-25T15:09:19.128Z,99076.06
2023-05-25T15:11:45.909Z,99073.06
2023-05-25T15:14:12.550Z,99057.13
2023-05-25T15:16:39.358Z,99067.28
2023-05-25T15:19:06.136Z,99074.41
2023-05-25T15:21:32.807Z,99071.75
2023-05-25T15:23:59.543Z,99062.91
2023-05-25T15:26:26.450Z,99075.38
2023-05-25T15:28:56.029Z,99071.75
2023-05-25T15:31:24.406Z,99063.16
2023-05-25T15:33:58.229Z,99058.81
2023-05-25T15:36:25.672Z,99062.19
2023-05-25T15:38:52.256Z,99041.78
2023-05-25T15:41:19.174Z,99059.53
2023-05-25T15:43:52.617Z,99064.97
2023-05-25T15:46:19.526Z,99064.00
2023-05-25T15:48:46.221Z,99051.66
2023-05-25T15:51:13.150Z,99054.34
2023-05-25T15:53:39.825Z,99049.88
2023-05-25T15:56:06.664Z,99050.72
2023-05-25T15:58:34.497Z,99053.38
2023-05-25T16:01:01.597Z,99056.03
2023-05-25T16:05:52.215Z,98986.69
2023-05-25T16:08:19.035Z,99025.56
2023-05-25T16:10:46.403Z,99046.47
2023-05-25T16:13:13.042Z,99042.47
2023-05-25T16:15:39.745Z,99053.63
2023-05-25T16:18:06.424Z,99009.72
2023-05-25T16:20:33.155Z,99057.25
2023-05-25T16:22:59.966Z,99033.69
2023-05-25T16:25:26.615Z,99045.88
2023-05-25T16:27:53.282Z,99026.66
2023-05-25T16:30:19.909Z,99030.91
2023-05-25T16:32:46.588Z,99049.38
2023-05-25T16:35:15.975Z,99042.47
2023-05-25T16:37:42.897Z,99053.13
2023-05-25T16:40:09.815Z,99046.13
2023-05-25T16:42:36.386Z,99046.38
2023-05-25T16:45:03.066Z,99047.44
2023-05-25T16:47:30.151Z,99044.53
2023-05-25T16:49:56.784Z,99043.94
2023-05-25T16:52:25.681Z,99044.66
2023-05-25T16:54:52.266Z,99049.03
2023-05-25T16:57:18.952Z,99049.97
2023-05-25T16:59:45.671Z,99027.75
2023-05-25T17:02:14.198Z,99039.22
2023-05-25T17:04:40.758Z,99053.84
2023-05-25T17:07:07.630Z,99049.25
2023-05-25T17:09:37.054Z,99060.00
2023-05-25T17:12:06.491Z,99064.34
2023-05-25T17:14:33.195Z,99057.81
2023-05-25T17:16:59.958Z,99061.97
2023-05-25T17:19:26.884Z,99012.38
2023-05-25T17:21:53.613Z,99051.19
2023-05-25T17:24:20.287Z,99065.31
2023-05-25T17:26:49.988Z,99066.88
2023-05-25T17:29:16.852Z,99060.75
2023-05-25T17:31:44.040Z,99048.28
2023-05-25T17:34:12.052Z,99059.78
2023-05-25T17:36:38.642Z,99061.47
2023-05-25T17:39:05.930Z,99055.28
2023-05-25T17:41:32.573Z,99063.13
2023-05-25T17:43:59.833Z,99070.16
2023-05-25T17:46:27.144Z,99055.16
2023-05-25T17:48:53.967Z,99057.81
2023-05-25T17:51:21.188Z,99066.66
2023-05-25T17:53:47.813Z,99056.16
2023-05-25T17:56:14.383Z,99068.59
2023-05-25T17:58:47.182Z,99065.94
2023-05-25T18:01:14.950Z,99069.44
2023-05-25T18:03:41.812Z,99064.34
2023-05-25T18:06:08.648Z,99063.75
2023-05-25T18:08:35.365Z,99069.53
2023-05-25T18:11:02.065Z,99061.56
2023-05-25T18:13:28.708Z,99056.25
2023-05-25T18:15:55.593Z,99062.53
2023-05-25T18:18:24.966Z,99066.19
2023-05-25T18:20:51.836Z,99050.72
2023-05-25T18:23:18.561Z,99069.81
2023-05-25T18:25:45.749Z,99068.09
2023-05-25T18:28:14.902Z,99061.22
2023-05-25T18:30:45.441Z,99070.03
2023-05-25T18:33:12.529Z,99069.19
2023-05-25T18:35:39.595Z,99067.50
2023-05-25T18:38:09.406Z,99056.72
2023-05-25T18:40:36.014Z,99080.91
2023-05-25T18:43:02.718Z,99079.22
2023-05-25T18:45:29.769Z,99078.38
2023-05-25T18:47:56.475Z,99081.88
2023-05-25T18:50:23.114Z,99082.00
2023-05-25T18:52:51.548Z,99082.00
2023-05-25T18:55:18.897Z,99077.63
2023-05-25T18:57:45.712Z,99074.25
2023-05-25T19:00:12.996Z,99071.72
2023-05-25T19:02:39.793Z,99076.53
2023-05-25T19:05:07.187Z,99089.44
2023-05-25T19:07:37.682Z,99072.53
2023-05-25T19:10:09.105Z,99089.44
2023-05-25T19:12:36.278Z,99093.94
2023-05-25T19:15:04.083Z,99098.41
2023-05-25T19:17:31.217Z,99095.84
2023-05-25T19:19:57.946Z,99098.88
2023-05-25T19:22:27.389Z,99078.66
2023-05-25T19:25:00.605Z,99101.63
2023-05-25T19:27:27.623Z,99082.53
2023-05-25T19:29:54.255Z,99091.72
2023-05-25T19:32:21.019Z,99106.94
2023-05-25T19:34:47.594Z,99108.78
2023-05-25T19:37:14.435Z,99105.16
2023-05-25T19:39:41.062Z,99107.69
2023-05-25T19:42:08.025Z,99110.34
2023-05-25T19:44:34.630Z,99112.16
2023-05-25T19:47:01.331Z,99110.22
2023-05-25T19:49:29.194Z,99109.38
2023-05-25T19:51:56.091Z,99104.19
2023-05-25T19:54:22.879Z,99106.72
2023-05-25T19:56:49.772Z,99111.91
2023-05-25T19:59:16.658Z,99107.47
2023-05-25T20:01:43.552Z,99105.66
2023-05-25T20:04:10.171Z,99101.41
2023-05-25T20:06:37.556Z,99109.25
2023-05-25T20:09:04.670Z,99108.44
2023-05-25T20:11:31.431Z,99101.41
2023-05-25T20:16:16.721Z,99091.47
2023-05-25T20:18:43.880Z,99111.44
2023-05-25T20:21:10.562Z,99090.84
2023-05-25T20:23:37.486Z,99028.94
2023-05-25T20:26:04.406Z,99107.06
2023-05-25T20:28:31.106Z,99099.44
2023-05-25T20:30:57.765Z,99096.56
2023-05-25T20:33:24.434Z,99099.97
2023-05-25T20:35:51.208Z,99100.53
2023-05-25T20:40:37.240Z,99101.16
2023-05-25T20:43:03.963Z,99101.91
2023-05-25T20:45:30.924Z,99101.78
2023-05-25T20:48:04.103Z,99107.00
2023-05-25T20:50:31.564Z,99109.75
2023-05-25T20:52:58.311Z,99114.09
2023-05-25T20:55:26.303Z,99117.63
2023-05-25T20:57:53.306Z,99114.97
2023-05-25T21:00:21.554Z,99108.78
2023-05-25T21:02:48.276Z,99107.97
2023-05-25T21:05:15.660Z,99115.06
2023-05-25T21:07:42.398Z,99111.44
2023-05-25T21:10:09.525Z,99112.41
2023-05-25T21:12:36.356Z,99108.06
2023-05-25T21:15:03.099Z,99110.72
2023-05-25T21:17:29.744Z,99117.00
2023-05-25T21:19:56.642Z,99120.50
2023-05-25T21:22:23.268Z,99090.78
2023-05-25T21:24:50.230Z,99120.50
2023-05-25T21:27:17.782Z,99098.97
2023-05-25T21:29:45.276Z,99109.75
2023-05-25T21:32:12.014Z,99113.50
2023-05-25T21:34:38.714Z,99087.75
2023-05-25T21:37:05.276Z,99095.63
2023-05-25T21:39:32.446Z,99113.38
2023-05-25T21:41:59.287Z,99115.81
2023-05-25T21:46:50.461Z,99105.78
2023-05-25T21:49:17.309Z,99120.28
2023-05-25T21:51:46.561Z,99113.16
2023-05-25T21:54:13.305Z,99120.16
2023-05-25T21:56:39.953Z,99112.19
2023-05-25T21:59:06.776Z,99091.00
2023-05-25T22:01:33.597Z,99103.59
2023-05-25T22:04:00.441Z,99095.00
2023-05-25T22:06:27.092Z,99106.75
2023-05-25T22:08:53.869Z,99112.19
2023-05-25T22:11:22.074Z,99107.63
2023-05-25T22:13:48.728Z,99083.78
2023-05-25T22:16:15.401Z,99085.31
2023-05-25T22:18:42.040Z,99110.28
2023-05-25T22:21:08.735Z,99110.38
2023-05-25T22:23:35.495Z,99107.63
2023-05-25T22:26:02.243Z,99112.06
2023-05-25T22:28:29.374Z,99112.94
2023-05-25T22:30:56.269Z,99088.34
2023-05-25T22:33:23.127Z,99100.06
2023-05-25T22:35:50.709Z,99114.72
2023-05-25T22:38:17.575Z,99123.66
2023-05-25T22:40:47.484Z,99104.19
2023-05-25T22:43:14.888Z,99098.75
2023-05-25T22:45:41.845Z,99114.84
2023-05-25T22:48:11.557Z,99106.13
2023-05-25T22:50:38.202Z,99107.81
2023-05-25T22:53:04.816Z,99090.78
2023-05-25T22:55:32.121Z,99116.63
2023-05-25T22:57:58.922Z,99110.50
2023-05-25T23:00:25.724Z,99109.66
2023-05-25T23:02:55.756Z,99110.50
2023-05-25T23:05:22.424Z,99113.16
2023-05-25T23:07:49.109Z,99109.75
2023-05-25T23:10:16.024Z,99109.66
2023-05-25T23:12:42.706Z,99109.75
2023-05-25T23:15:10.929Z,99103.00
2023-05-25T23:17:37.583Z,99092.69
2023-05-25T23:20:07.028Z,99100.53
2023-05-25T23:22:34.606Z,99114.34
2023-05-25T23:25:01.546Z,99108.06
2023-05-25T23:27:28.164Z,99107.22
2023-05-25T23:29:54.926Z,99086.06
2023-05-25T23:32:21.879Z,99107.22
2023-05-25T23:34:48.728Z,99103.72
2023-05-25T23:37:15.410Z,99099.38
2023-05-25T23:39:42.010Z,99098.50
2023-05-25T23:42:08.576Z,99096.72
2023-05-25T23:44:35.684Z,99097.53
2023-05-25T23:47:02.222Z,99104.69
2023-05-25T23:49:28.841Z,99104.69
2023-05-25T23:51:55.437Z,99107.34
2023-05-25T23:54:22.217Z,99097.69
2023-05-25T23:56:48.810Z,99088.88
2023-05-25T23:59:15.522Z,99091.53
